sensor_id;sensor_type;location;lat;lon;timestamp;temperature;humidity
2212;DHT22;48849;48.758;9.158;2022-07-10T00:00:00;20.70;99.90
2212;DHT22;48849;48.758;9.158;2022-07-10T00:02:28;20.70;99.90
2212;DHT22;48849;48.758;9.158;2022-07-10T00:04:54;20.70;99.90
2212;DHT22;48849;48.758;9.158;2022-07-10T00:07:21;20.70;99.90
2212;DHT22;48849;48.758;9.158;2022-07-10T00:09:48;20.70;99.90
2212;DHT22;48849;48.758;9.158;2022-07-10T00:12:14;20.70;99.90
2212;DHT22;48849;48.758;9.158;2022-07-10T00:14:41;20.70;99.90
2212;DHT22;48849;48.758;9.158;2022-07-10T00:17:08;20.60;99.90
2212;DHT22;48849;48.758;9.158;2022-07-10T00:19:36;20.60;99.90
2212;DHT22;48849;48.758;9.158;2022-07-10T00:22:03;20.70;99.90
2212;DHT22;48849;48.758;9.158;2022-07-10T00:24:30;20.70;99.90
2212;DHT22;48849;48.758;9.158;2022-07-10T00:26:57;20.60;99.90
2212;DHT22;48849;48.758;9.158;2022-07-10T00:29:23;20.50;99.90
2212;DHT22;48849;48.758;9.158;2022-07-10T00:31:50;20.50;99.90
2212;DHT22;48849;48.758;9.158;2022-07-10T00:34:17;20.50;99.90
2212;DHT22;48849;48.758;9.158;2022-07-10T00:36:45;20.60;99.90
2212;DHT22;48849;48.758;9.158;2022-07-10T00:39:12;20.60;99.90
2212;DHT22;48849;48.758;9.158;2022-07-10T00:41:39;20.60;99.90
2212;DHT22;48849;48.758;9.158;2022-07-10T00:44:05;20.60;99.90
2212;DHT22;48849;48.758;9.158;2022-07-10T00:46:32;20.60;99.90
2212;DHT22;48849;48.758;9.158;2022-07-10T00:48:59;20.60;99.90
2212;DHT22;48849;48.758;9.158;2022-07-10T00:51:27;20.60;99.90
2212;DHT22;48849;48.758;9.158;2022-07-10T00:53:56;20.60;99.90
2212;DHT22;48849;48.758;9.158;2022-07-10T00:56:25;20.60;99.90
2212;DHT22;48849;48.758;9.158;2022-07-10T00:58:52;20.50;99.90
2212;DHT22;48849;48.758;9.158;2022-07-10T01:01:19;20.60;99.90
2212;DHT22;48849;48.758;9.158;2022-07-10T01:03:48;20.60;99.90
2212;DHT22;48849;48.758;9.158;2022-07-10T01:06:16;20.50;99.90
2212;DHT22;48849;48.758;9.158;2022-07-10T01:08:43;20.60;99.90
2212;DHT22;48849;48.758;9.158;2022-07-10T01:11:13;20.50;99.90
2212;DHT22;48849;48.758;9.158;2022-07-10T01:13:41;20.50;99.90
2212;DHT22;48849;48.758;9.158;2022-07-10T01:16:09;20.50;99.90
2212;DHT22;48849;48.758;9.158;2022-07-10T01:18:35;20.50;99.90
2212;DHT22;48849;48.758;9.158;2022-07-10T01:21:04;20.50;99.90
2212;DHT22;48849;48.758;9.158;2022-07-10T01:23:30;20.50;99.90
2212;DHT22;48849;48.758;9.158;2022-07-10T01:25:57;20.50;99.90
2212;DHT22;48849;48.758;9.158;2022-07-10T01:28:25;20.50;99.90
2212;DHT22;48849;48.758;9.158;2022-07-10T01:30:54;20.40;99.90
2212;DHT22;48849;48.758;9.158;2022-07-10T01:33:21;20.40;99.90
2212;DHT22;48849;48.758;9.158;2022-07-10T01:35:48;20.40;99.90
2212;DHT22;48849;48.758;9.158;2022-07-10T01:38:16;20.40;99.90
2212;DHT22;48849;48.758;9.158;2022-07-10T01:40:42;20.40;99.90
2212;DHT22;48849;48.758;9.158;2022-07-10T01:43:09;20.30;99.90
2212;DHT22;48849;48.758;9.158;2022-07-10T01:45:36;20.30;99.90
2212;DHT22;48849;48.758;9.158;2022-07-10T01:48:02;20.30;99.90
2212;DHT22;48849;48.758;9.158;2022-07-10T01:50:29;20.30;99.90
2212;DHT22;48849;48.758;9.158;2022-07-10T01:52:56;20.20;99.90
2212;DHT22;48849;48.758;9.158;2022-07-10T01:55:25;21.30;99.90
2212;DHT22;48849;48.758;9.158;2022-07-10T01:57:52;20.20;99.90
2212;DHT22;48849;48.758;9.158;2022-07-10T02:00:18;20.20;99.90
2212;DHT22;48849;48.758;9.158;2022-07-10T02:02:45;20.20;99.90
2212;DHT22;48849;48.758;9.158;2022-07-10T02:05:32;20.20;99.90
2212;DHT22;48849;48.758;9.158;2022-07-10T02:07:57;20.20;99.90
2212;DHT22;48849;48.758;9.158;2022-07-10T02:10:26;20.30;99.90
2212;DHT22;48849;48.758;9.158;2022-07-10T02:12:53;20.10;99.90
2212;DHT22;48849;48.758;9.158;2022-07-10T02:15:19;20.10;99.90
2212;DHT22;48849;48.758;9.158;2022-07-10T02:17:46;20.10;99.90
2212;DHT22;48849;48.758;9.158;2022-07-10T02:20:13;20.20;99.90
2212;DHT22;48849;48.758;9.158;2022-07-10T02:22:39;20.10;99.90
2212;DHT22;48849;48.758;9.158;2022-07-10T02:25:07;20.10;99.90
2212;DHT22;48849;48.758;9.158;2022-07-10T02:27:35;20.10;99.90
2212;DHT22;48849;48.758;9.158;2022-07-10T02:30:02;20.10;99.90
2212;DHT22;48849;48.758;9.158;2022-07-10T02:32:28;20.10;99.90
2212;DHT22;48849;48.758;9.158;2022-07-10T02:34:55;20.20;99.90
2212;DHT22;48849;48.758;9.158;2022-07-10T02:37:22;20.20;99.90
2212;DHT22;48849;48.758;9.158;2022-07-10T02:39:48;20.10;99.90
2212;DHT22;48849;48.758;9.158;2022-07-10T02:42:15;20.10;99.90
2212;DHT22;48849;48.758;9.158;2022-07-10T02:44:43;20.20;99.90
2212;DHT22;48849;48.758;9.158;2022-07-10T02:47:10;20.30;99.90
2212;DHT22;48849;48.758;9.158;2022-07-10T02:49:36;20.20;99.90
2212;DHT22;48849;48.758;9.158;2022-07-10T02:52:04;20.30;99.90
2212;DHT22;48849;48.758;9.158;2022-07-10T02:54:30;20.30;99.90
2212;DHT22;48849;48.758;9.158;2022-07-10T02:56:57;20.30;99.90
2212;DHT22;48849;48.758;9.158;2022-07-10T02:59:24;20.30;99.90
2212;DHT22;48849;48.758;9.158;2022-07-10T03:01:52;20.30;99.90
2212;DHT22;48849;48.758;9.158;2022-07-10T03:04:18;20.30;99.90
2212;DHT22;48849;48.758;9.158;2022-07-10T03:06:45;20.30;99.90
2212;DHT22;48849;48.758;9.158;2022-07-10T03:09:12;20.30;99.90
2212;DHT22;48849;48.758;9.158;2022-07-10T03:11:38;20.30;99.90
2212;DHT22;48849;48.758;9.158;2022-07-10T03:14:05;20.50;99.90
2212;DHT22;48849;48.758;9.158;2022-07-10T03:16:32;20.20;99.90
2212;DHT22;48849;48.758;9.158;2022-07-10T03:19:00;20.60;99.90
2212;DHT22;48849;48.758;9.158;2022-07-10T03:21:27;20.20;99.90
2212;DHT22;48849;48.758;9.158;2022-07-10T03:23:55;20.30;99.90
2212;DHT22;48849;48.758;9.158;2022-07-10T03:26:22;20.30;99.90
2212;DHT22;48849;48.758;9.158;2022-07-10T03:28:48;20.20;99.90
2212;DHT22;48849;48.758;9.158;2022-07-10T03:31:15;20.40;99.90
2212;DHT22;48849;48.758;9.158;2022-07-10T03:33:42;20.20;99.90
2212;DHT22;48849;48.758;9.158;2022-07-10T03:36:10;20.30;99.90
2212;DHT22;48849;48.758;9.158;2022-07-10T03:38:38;20.30;99.90
2212;DHT22;48849;48.758;9.158;2022-07-10T03:41:05;20.20;99.90
2212;DHT22;48849;48.758;9.158;2022-07-10T03:43:32;20.30;99.90
2212;DHT22;48849;48.758;9.158;2022-07-10T03:45:58;20.30;99.90
2212;DHT22;48849;48.758;9.158;2022-07-10T03:48:25;20.30;99.90
2212;DHT22;48849;48.758;9.158;2022-07-10T03:50:52;20.30;99.90
2212;DHT22;48849;48.758;9.158;2022-07-10T03:53:20;20.30;99.90
2212;DHT22;48849;48.758;9.158;2022-07-10T03:55:47;20.50;99.90
2212;DHT22;48849;48.758;9.158;2022-07-10T03:58:13;20.30;99.90
2212;DHT22;48849;48.758;9.158;2022-07-10T04:00:39;20.30;99.90
2212;DHT22;48849;48.758;9.158;2022-07-10T04:03:08;20.30;99.90
2212;DHT22;48849;48.758;9.158;2022-07-10T04:05:35;20.30;99.90
2212;DHT22;48849;48.758;9.158;2022-07-10T04:08:03;20.20;99.90
2212;DHT22;48849;48.758;9.158;2022-07-10T04:10:32;20.20;99.90
2212;DHT22;48849;48.758;9.158;2022-07-10T04:12:59;20.20;99.90
2212;DHT22;48849;48.758;9.158;2022-07-10T04:15:26;20.20;99.90
2212;DHT22;48849;48.758;9.158;2022-07-10T04:17:53;20.20;99.90
2212;DHT22;48849;48.758;9.158;2022-07-10T04:20:21;20.20;99.90
2212;DHT22;48849;48.758;9.158;2022-07-10T04:22:48;20.30;99.90
2212;DHT22;48849;48.758;9.158;2022-07-10T04:25:15;20.20;99.90
2212;DHT22;48849;48.758;9.158;2022-07-10T04:27:43;20.20;99.90
2212;DHT22;48849;48.758;9.158;2022-07-10T04:30:10;20.30;99.90
2212;DHT22;48849;48.758;9.158;2022-07-10T04:32:37;20.20;99.90
2212;DHT22;48849;48.758;9.158;2022-07-10T04:35:04;20.20;99.90
2212;DHT22;48849;48.758;9.158;2022-07-10T04:37:31;20.20;99.90
2212;DHT22;48849;48.758;9.158;2022-07-10T04:39:59;20.10;99.90
2212;DHT22;48849;48.758;9.158;2022-07-10T04:42:26;20.10;99.90
2212;DHT22;48849;48.758;9.158;2022-07-10T04:44:54;20.10;99.90
2212;DHT22;48849;48.758;9.158;2022-07-10T04:47:21;20.30;99.90
2212;DHT22;48849;48.758;9.158;2022-07-10T04:49:48;20.30;99.90
2212;DHT22;48849;48.758;9.158;2022-07-10T04:52:14;20.20;99.90
2212;DHT22;48849;48.758;9.158;2022-07-10T04:54:41;20.30;99.90
2212;DHT22;48849;48.758;9.158;2022-07-10T04:57:08;20.20;99.90
2212;DHT22;48849;48.758;9.158;2022-07-10T04:59:35;20.20;99.90
2212;DHT22;48849;48.758;9.158;2022-07-10T05:02:03;20.20;99.90
2212;DHT22;48849;48.758;9.158;2022-07-10T05:04:30;20.20;99.90
2212;DHT22;48849;48.758;9.158;2022-07-10T05:06:56;20.20;99.90
2212;DHT22;48849;48.758;9.158;2022-07-10T05:09:23;20.30;99.90
2212;DHT22;48849;48.758;9.158;2022-07-10T05:11:50;20.20;99.90
2212;DHT22;48849;48.758;9.158;2022-07-10T05:14:17;20.20;99.90
2212;DHT22;48849;48.758;9.158;2022-07-10T05:16:44;20.20;99.90
2212;DHT22;48849;48.758;9.158;2022-07-10T05:19:12;20.30;99.90
2212;DHT22;48849;48.758;9.158;2022-07-10T05:21:39;20.20;99.90
2212;DHT22;48849;48.758;9.158;2022-07-10T05:24:06;20.20;99.90
2212;DHT22;48849;48.758;9.158;2022-07-10T05:26:32;20.20;99.90
2212;DHT22;48849;48.758;9.158;2022-07-10T05:28:59;20.30;99.90
2212;DHT22;48849;48.758;9.158;2022-07-10T05:31:26;20.50;99.90
2212;DHT22;48849;48.758;9.158;2022-07-10T05:33:52;20.20;99.90
2212;DHT22;48849;48.758;9.158;2022-07-10T05:36:20;20.20;99.90
2212;DHT22;48849;48.758;9.158;2022-07-10T05:38:47;20.20;99.90
2212;DHT22;48849;48.758;9.158;2022-07-10T05:41:14;20.20;99.90
2212;DHT22;48849;48.758;9.158;2022-07-10T05:43:40;20.10;99.90
2212;DHT22;48849;48.758;9.158;2022-07-10T05:46:07;20.20;99.90
2212;DHT22;48849;48.758;9.158;2022-07-10T05:48:34;20.20;99.90
2212;DHT22;48849;48.758;9.158;2022-07-10T05:51:01;20.20;99.90
2212;DHT22;48849;48.758;9.158;2022-07-10T05:53:29;20.20;99.90
2212;DHT22;48849;48.758;9.158;2022-07-10T05:56:00;20.20;99.90
2212;DHT22;48849;48.758;9.158;2022-07-10T05:58:27;20.20;99.90
2212;DHT22;48849;48.758;9.158;2022-07-10T06:00:54;20.10;99.90
2212;DHT22;48849;48.758;9.158;2022-07-10T06:03:21;20.10;99.90
2212;DHT22;48849;48.758;9.158;2022-07-10T06:05:48;20.10;99.90
2212;DHT22;48849;48.758;9.158;2022-07-10T06:08:14;20.20;99.90
2212;DHT22;48849;48.758;9.158;2022-07-10T06:10:42;20.10;99.90
2212;DHT22;48849;48.758;9.158;2022-07-10T06:13:09;20.20;99.90
2212;DHT22;48849;48.758;9.158;2022-07-10T06:15:36;20.20;99.90
2212;DHT22;48849;48.758;9.158;2022-07-10T06:18:03;20.50;99.90
2212;DHT22;48849;48.758;9.158;2022-07-10T06:20:30;20.20;99.90
2212;DHT22;48849;48.758;9.158;2022-07-10T06:22:57;20.20;99.90
2212;DHT22;48849;48.758;9.158;2022-07-10T06:25:24;20.20;99.90
2212;DHT22;48849;48.758;9.158;2022-07-10T06:27:52;20.20;99.90
2212;DHT22;48849;48.758;9.158;2022-07-10T06:30:19;20.20;99.90
2212;DHT22;48849;48.758;9.158;2022-07-10T06:32:46;20.20;99.90
2212;DHT22;48849;48.758;9.158;2022-07-10T06:35:12;20.20;99.90
2212;DHT22;48849;48.758;9.158;2022-07-10T06:37:39;20.40;99.90
2212;DHT22;48849;48.758;9.158;2022-07-10T06:40:07;20.20;99.90
2212;DHT22;48849;48.758;9.158;2022-07-10T06:42:36;20.20;99.90
2212;DHT22;48849;48.758;9.158;2022-07-10T06:45:05;20.30;99.90
2212;DHT22;48849;48.758;9.158;2022-07-10T06:47:32;20.30;99.90
2212;DHT22;48849;48.758;9.158;2022-07-10T06:50:16;20.30;99.90
2212;DHT22;48849;48.758;9.158;2022-07-10T06:52:43;20.30;99.90
2212;DHT22;48849;48.758;9.158;2022-07-10T06:55:10;20.30;99.90
2212;DHT22;48849;48.758;9.158;2022-07-10T06:57:38;20.40;99.90
2212;DHT22;48849;48.758;9.158;2022-07-10T07:00:07;20.30;99.90
2212;DHT22;48849;48.758;9.158;2022-07-10T07:02:35;20.30;99.90
2212;DHT22;48849;48.758;9.158;2022-07-10T07:05:01;20.50;99.90
2212;DHT22;48849;48.758;9.158;2022-07-10T07:07:28;20.30;99.90
2212;DHT22;48849;48.758;9.158;2022-07-10T07:09:55;20.30;99.90
2212;DHT22;48849;48.758;9.158;2022-07-10T07:12:21;20.30;99.90
2212;DHT22;48849;48.758;9.158;2022-07-10T07:14:48;20.30;99.90
2212;DHT22;48849;48.758;9.158;2022-07-10T07:17:16;20.20;99.90
2212;DHT22;48849;48.758;9.158;2022-07-10T07:19:48;20.30;99.90
2212;DHT22;48849;48.758;9.158;2022-07-10T07:22:32;20.30;99.90
2212;DHT22;48849;48.758;9.158;2022-07-10T07:25:17;20.20;99.90
2212;DHT22;48849;48.758;9.158;2022-07-10T07:27:43;20.30;99.90
2212;DHT22;48849;48.758;9.158;2022-07-10T07:30:12;20.30;99.90
2212;DHT22;48849;48.758;9.158;2022-07-10T07:32:43;20.40;99.90
2212;DHT22;48849;48.758;9.158;2022-07-10T07:35:13;20.40;99.90
2212;DHT22;48849;48.758;9.158;2022-07-10T07:37:41;20.50;99.90
2212;DHT22;48849;48.758;9.158;2022-07-10T07:40:10;21.20;99.90
2212;DHT22;48849;48.758;9.158;2022-07-10T07:42:37;20.50;99.90
2212;DHT22;48849;48.758;9.158;2022-07-10T07:45:05;20.50;99.90
2212;DHT22;48849;48.758;9.158;2022-07-10T07:47:43;20.50;99.90
2212;DHT22;48849;48.758;9.158;2022-07-10T07:50:11;20.60;99.90
2212;DHT22;48849;48.758;9.158;2022-07-10T07:52:38;20.60;99.90
2212;DHT22;48849;48.758;9.158;2022-07-10T07:55:05;20.80;99.90
2212;DHT22;48849;48.758;9.158;2022-07-10T07:57:32;20.60;99.90
2212;DHT22;48849;48.758;9.158;2022-07-10T07:59:59;20.60;99.90
2212;DHT22;48849;48.758;9.158;2022-07-10T08:02:26;20.70;99.90
2212;DHT22;48849;48.758;9.158;2022-07-10T08:04:54;20.60;99.90
2212;DHT22;48849;48.758;9.158;2022-07-10T08:07:20;20.90;99.90
2212;DHT22;48849;48.758;9.158;2022-07-10T08:09:47;20.70;99.90
2212;DHT22;48849;48.758;9.158;2022-07-10T08:12:15;20.60;99.90
2212;DHT22;48849;48.758;9.158;2022-07-10T08:14:41;20.70;99.90
2212;DHT22;48849;48.758;9.158;2022-07-10T08:17:08;21.00;99.90
2212;DHT22;48849;48.758;9.158;2022-07-10T08:19:35;20.70;99.90
2212;DHT22;48849;48.758;9.158;2022-07-10T08:22:03;20.80;99.90
2212;DHT22;48849;48.758;9.158;2022-07-10T08:24:30;20.80;99.90
2212;DHT22;48849;48.758;9.158;2022-07-10T08:26:57;20.80;99.90
2212;DHT22;48849;48.758;9.158;2022-07-10T08:29:24;20.90;99.90
2212;DHT22;48849;48.758;9.158;2022-07-10T08:31:50;20.90;99.90
2212;DHT22;48849;48.758;9.158;2022-07-10T08:34:18;20.90;99.90
2212;DHT22;48849;48.758;9.158;2022-07-10T08:36:45;21.10;99.90
2212;DHT22;48849;48.758;9.158;2022-07-10T08:39:13;21.80;99.90
2212;DHT22;48849;48.758;9.158;2022-07-10T08:41:42;20.90;99.90
2212;DHT22;48849;48.758;9.158;2022-07-10T08:44:10;20.80;99.90
2212;DHT22;48849;48.758;9.158;2022-07-10T08:46:37;21.00;99.90
2212;DHT22;48849;48.758;9.158;2022-07-10T08:49:08;21.40;99.90
2212;DHT22;48849;48.758;9.158;2022-07-10T08:51:39;21.20;99.90
2212;DHT22;48849;48.758;9.158;2022-07-10T08:54:08;21.00;99.90
2212;DHT22;48849;48.758;9.158;2022-07-10T08:56:37;21.00;99.90
2212;DHT22;48849;48.758;9.158;2022-07-10T08:59:04;21.00;99.90
2212;DHT22;48849;48.758;9.158;2022-07-10T09:01:31;21.00;99.90
2212;DHT22;48849;48.758;9.158;2022-07-10T09:03:58;21.00;99.90
2212;DHT22;48849;48.758;9.158;2022-07-10T09:06:25;21.10;99.90
2212;DHT22;48849;48.758;9.158;2022-07-10T09:09:03;21.10;99.90
2212;DHT22;48849;48.758;9.158;2022-07-10T09:11:30;21.00;99.90
2212;DHT22;48849;48.758;9.158;2022-07-10T09:13:59;21.10;99.90
2212;DHT22;48849;48.758;9.158;2022-07-10T09:16:29;21.00;99.90
2212;DHT22;48849;48.758;9.158;2022-07-10T09:18:56;21.10;99.90
2212;DHT22;48849;48.758;9.158;2022-07-10T09:21:23;21.20;99.90
2212;DHT22;48849;48.758;9.158;2022-07-10T09:23:50;21.60;99.90
2212;DHT22;48849;48.758;9.158;2022-07-10T09:26:18;21.20;99.90
2212;DHT22;48849;48.758;9.158;2022-07-10T09:28:44;21.20;99.90
2212;DHT22;48849;48.758;9.158;2022-07-10T09:31:12;21.20;99.90
2212;DHT22;48849;48.758;9.158;2022-07-10T09:33:40;21.20;99.90
2212;DHT22;48849;48.758;9.158;2022-07-10T09:36:08;21.30;99.90
2212;DHT22;48849;48.758;9.158;2022-07-10T09:41:27;21.30;99.90
2212;DHT22;48849;48.758;9.158;2022-07-10T09:43:56;21.20;99.90
2212;DHT22;48849;48.758;9.158;2022-07-10T09:46:25;21.20;99.90
2212;DHT22;48849;48.758;9.158;2022-07-10T09:49:03;21.20;99.90
2212;DHT22;48849;48.758;9.158;2022-07-10T09:51:32;21.30;99.90
2212;DHT22;48849;48.758;9.158;2022-07-10T09:54:01;21.30;99.90
2212;DHT22;48849;48.758;9.158;2022-07-10T09:56:32;21.40;99.90
2212;DHT22;48849;48.758;9.158;2022-07-10T09:59:00;21.80;99.90
2212;DHT22;48849;48.758;9.158;2022-07-10T10:01:29;21.40;99.90
2212;DHT22;48849;48.758;9.158;2022-07-10T10:03:58;21.40;99.90
2212;DHT22;48849;48.758;9.158;2022-07-10T10:06:27;21.30;99.90
2212;DHT22;48849;48.758;9.158;2022-07-10T10:08:59;21.40;99.90
2212;DHT22;48849;48.758;9.158;2022-07-10T10:11:32;21.40;99.90
2212;DHT22;48849;48.758;9.158;2022-07-10T10:14:00;21.50;99.90
2212;DHT22;48849;48.758;9.158;2022-07-10T10:16:29;21.40;99.90
2212;DHT22;48849;48.758;9.158;2022-07-10T10:18:56;21.40;99.90
2212;DHT22;48849;48.758;9.158;2022-07-10T10:21:40;21.50;99.90
2212;DHT22;48849;48.758;9.158;2022-07-10T10:24:07;21.50;99.90
2212;DHT22;48849;48.758;9.158;2022-07-10T10:26:34;21.60;99.90
2212;DHT22;48849;48.758;9.158;2022-07-10T10:29:02;21.60;99.90
2212;DHT22;48849;48.758;9.158;2022-07-10T10:31:31;21.60;99.90
2212;DHT22;48849;48.758;9.158;2022-07-10T10:33:59;21.70;99.90
2212;DHT22;48849;48.758;9.158;2022-07-10T10:36:46;21.70;99.90
2212;DHT22;48849;48.758;9.158;2022-07-10T10:39:14;21.70;99.90
2212;DHT22;48849;48.758;9.158;2022-07-10T10:41:46;21.70;99.90
2212;DHT22;48849;48.758;9.158;2022-07-10T10:44:28;21.70;99.90
2212;DHT22;48849;48.758;9.158;2022-07-10T10:47:04;21.80;99.90
2212;DHT22;48849;48.758;9.158;2022-07-10T10:49:53;21.80;99.90
2212;DHT22;48849;48.758;9.158;2022-07-10T10:52:22;21.80;99.90
2212;DHT22;48849;48.758;9.158;2022-07-10T10:55:08;21.90;99.90
2212;DHT22;48849;48.758;9.158;2022-07-10T10:57:43;22.00;99.90
2212;DHT22;48849;48.758;9.158;2022-07-10T11:00:15;22.10;99.90
2212;DHT22;48849;48.758;9.158;2022-07-10T11:05:52;22.10;99.90
2212;DHT22;48849;48.758;9.158;2022-07-10T11:08:37;22.30;99.90
2212;DHT22;48849;48.758;9.158;2022-07-10T11:11:38;22.40;99.90
2212;DHT22;48849;48.758;9.158;2022-07-10T11:14:08;22.50;99.90
2212;DHT22;48849;48.758;9.158;2022-07-10T11:16:37;22.60;99.90
2212;DHT22;48849;48.758;9.158;2022-07-10T11:19:04;22.50;99.90
2212;DHT22;48849;48.758;9.158;2022-07-10T11:21:45;22.70;99.90
2212;DHT22;48849;48.758;9.158;2022-07-10T11:24:24;22.60;99.90
2212;DHT22;48849;48.758;9.158;2022-07-10T11:27:02;22.60;99.90
2212;DHT22;48849;48.758;9.158;2022-07-10T11:29:36;22.80;99.90
2212;DHT22;48849;48.758;9.158;2022-07-10T11:32:04;23.00;99.90
2212;DHT22;48849;48.758;9.158;2022-07-10T11:34:34;23.00;99.90
2212;DHT22;48849;48.758;9.158;2022-07-10T11:37:03;23.10;99.90
2212;DHT22;48849;48.758;9.158;2022-07-10T11:39:39;23.20;99.90
2212;DHT22;48849;48.758;9.158;2022-07-10T11:42:06;23.20;99.90
2212;DHT22;48849;48.758;9.158;2022-07-10T11:44:33;23.20;99.90
2212;DHT22;48849;48.758;9.158;2022-07-10T11:47:00;23.20;99.90
2212;DHT22;48849;48.758;9.158;2022-07-10T11:49:28;23.30;99.90
2212;DHT22;48849;48.758;9.158;2022-07-10T11:52:02;23.40;99.90
2212;DHT22;48849;48.758;9.158;2022-07-10T11:54:30;23.40;99.90
2212;DHT22;48849;48.758;9.158;2022-07-10T11:57:05;23.50;99.90
2212;DHT22;48849;48.758;9.158;2022-07-10T11:59:33;23.60;99.90
2212;DHT22;48849;48.758;9.158;2022-07-10T12:02:00;23.60;99.90
2212;DHT22;48849;48.758;9.158;2022-07-10T12:04:29;23.50;99.90
2212;DHT22;48849;48.758;9.158;2022-07-10T12:06:56;23.60;99.90
2212;DHT22;48849;48.758;9.158;2022-07-10T12:09:24;23.70;99.90
2212;DHT22;48849;48.758;9.158;2022-07-10T12:11:59;23.80;99.90
2212;DHT22;48849;48.758;9.158;2022-07-10T12:14:26;23.80;99.90
2212;DHT22;48849;48.758;9.158;2022-07-10T12:16:54;23.80;99.90
2212;DHT22;48849;48.758;9.158;2022-07-10T12:19:23;23.80;99.90
2212;DHT22;48849;48.758;9.158;2022-07-10T12:21:51;23.70;99.90
2212;DHT22;48849;48.758;9.158;2022-07-10T12:24:19;23.80;99.90
2212;DHT22;48849;48.758;9.158;2022-07-10T12:26:48;23.80;99.90
2212;DHT22;48849;48.758;9.158;2022-07-10T12:29:19;23.90;99.90
2212;DHT22;48849;48.758;9.158;2022-07-10T12:31:54;24.00;99.90
2212;DHT22;48849;48.758;9.158;2022-07-10T12:34:33;24.00;99.90
2212;DHT22;48849;48.758;9.158;2022-07-10T12:37:06;24.10;99.90
2212;DHT22;48849;48.758;9.158;2022-07-10T12:39:36;24.10;99.90
2212;DHT22;48849;48.758;9.158;2022-07-10T12:42:06;24.20;99.90
2212;DHT22;48849;48.758;9.158;2022-07-10T12:44:38;24.20;99.90
2212;DHT22;48849;48.758;9.158;2022-07-10T12:47:06;24.30;99.90
2212;DHT22;48849;48.758;9.158;2022-07-10T12:49:50;24.50;99.90
2212;DHT22;48849;48.758;9.158;2022-07-10T12:52:25;24.70;99.90
2212;DHT22;48849;48.758;9.158;2022-07-10T12:55:06;24.90;99.90
2212;DHT22;48849;48.758;9.158;2022-07-10T12:57:49;25.00;99.90
2212;DHT22;48849;48.758;9.158;2022-07-10T13:00:18;25.20;99.90
2212;DHT22;48849;48.758;9.158;2022-07-10T13:02:45;25.30;99.90
2212;DHT22;48849;48.758;9.158;2022-07-10T13:05:28;25.30;99.90
2212;DHT22;48849;48.758;9.158;2022-07-10T13:08:08;25.50;99.90
2212;DHT22;48849;48.758;9.158;2022-07-10T13:10:36;25.60;99.90
2212;DHT22;48849;48.758;9.158;2022-07-10T13:13:04;25.70;99.90
2212;DHT22;48849;48.758;9.158;2022-07-10T13:15:32;25.80;99.90
2212;DHT22;48849;48.758;9.158;2022-07-10T13:18:00;25.90;99.90
2212;DHT22;48849;48.758;9.158;2022-07-10T13:20:26;26.10;99.90
2212;DHT22;48849;48.758;9.158;2022-07-10T13:22:53;26.10;99.90
2212;DHT22;48849;48.758;9.158;2022-07-10T13:25:20;26.20;99.90
2212;DHT22;48849;48.758;9.158;2022-07-10T13:27:46;26.20;99.90
2212;DHT22;48849;48.758;9.158;2022-07-10T13:30:15;26.30;99.90
2212;DHT22;48849;48.758;9.158;2022-07-10T13:32:41;26.30;99.90
2212;DHT22;48849;48.758;9.158;2022-07-10T13:35:08;26.30;99.90
2212;DHT22;48849;48.758;9.158;2022-07-10T13:37:35;26.30;99.90
2212;DHT22;48849;48.758;9.158;2022-07-10T13:40:02;26.30;99.90
2212;DHT22;48849;48.758;9.158;2022-07-10T13:42:29;26.30;99.90
2212;DHT22;48849;48.758;9.158;2022-07-10T13:44:56;26.30;99.90
2212;DHT22;48849;48.758;9.158;2022-07-10T13:47:24;26.30;99.90
2212;DHT22;48849;48.758;9.158;2022-07-10T13:49:50;26.40;99.90
2212;DHT22;48849;48.758;9.158;2022-07-10T13:52:17;26.40;99.90
2212;DHT22;48849;48.758;9.158;2022-07-10T13:54:44;26.40;99.90
2212;DHT22;48849;48.758;9.158;2022-07-10T13:57:10;26.20;99.90
2212;DHT22;48849;48.758;9.158;2022-07-10T13:59:37;26.20;99.90
2212;DHT22;48849;48.758;9.158;2022-07-10T14:02:04;26.50;99.90
2212;DHT22;48849;48.758;9.158;2022-07-10T14:04:32;27.20;99.90
2212;DHT22;48849;48.758;9.158;2022-07-10T14:06:59;28.30;99.90
2212;DHT22;48849;48.758;9.158;2022-07-10T14:09:26;29.80;99.90
2212;DHT22;48849;48.758;9.158;2022-07-10T14:11:54;30.20;99.80
2212;DHT22;48849;48.758;9.158;2022-07-10T14:14:20;30.60;99.00
2212;DHT22;48849;48.758;9.158;2022-07-10T14:16:48;31.10;98.90
2212;DHT22;48849;48.758;9.158;2022-07-10T14:19:15;30.70;99.90
2212;DHT22;48849;48.758;9.158;2022-07-10T14:21:43;30.10;99.40
2212;DHT22;48849;48.758;9.158;2022-07-10T14:24:10;29.40;99.80
2212;DHT22;48849;48.758;9.158;2022-07-10T14:26:36;28.80;98.80
2212;DHT22;48849;48.758;9.158;2022-07-10T14:29:03;28.20;99.60
2212;DHT22;48849;48.758;9.158;2022-07-10T14:31:30;27.60;99.90
2212;DHT22;48849;48.758;9.158;2022-07-10T14:33:57;27.10;99.90
2212;DHT22;48849;48.758;9.158;2022-07-10T14:36:24;26.70;99.90
2212;DHT22;48849;48.758;9.158;2022-07-10T14:38:54;26.40;99.90
2212;DHT22;48849;48.758;9.158;2022-07-10T14:41:21;26.10;99.90
2212;DHT22;48849;48.758;9.158;2022-07-10T14:43:48;25.80;99.90
2212;DHT22;48849;48.758;9.158;2022-07-10T14:46:15;25.60;99.90
2212;DHT22;48849;48.758;9.158;2022-07-10T14:48:42;25.40;99.90
2212;DHT22;48849;48.758;9.158;2022-07-10T14:51:08;25.20;99.90
2212;DHT22;48849;48.758;9.158;2022-07-10T14:53:36;25.10;99.90
2212;DHT22;48849;48.758;9.158;2022-07-10T14:56:05;24.90;99.90
2212;DHT22;48849;48.758;9.158;2022-07-10T14:58:32;24.80;99.90
2212;DHT22;48849;48.758;9.158;2022-07-10T15:00:59;24.60;99.90
2212;DHT22;48849;48.758;9.158;2022-07-10T15:03:28;24.50;99.90
2212;DHT22;48849;48.758;9.158;2022-07-10T15:05:55;24.40;99.90
2212;DHT22;48849;48.758;9.158;2022-07-10T15:08:23;24.30;99.90
2212;DHT22;48849;48.758;9.158;2022-07-10T15:10:50;24.20;99.90
2212;DHT22;48849;48.758;9.158;2022-07-10T15:13:18;24.20;99.90
2212;DHT22;48849;48.758;9.158;2022-07-10T15:15:45;24.10;99.90
2212;DHT22;48849;48.758;9.158;2022-07-10T15:18:13;24.10;99.90
2212;DHT22;48849;48.758;9.158;2022-07-10T15:20:40;24.00;99.90
2212;DHT22;48849;48.758;9.158;2022-07-10T15:23:07;24.00;99.90
2212;DHT22;48849;48.758;9.158;2022-07-10T15:25:33;23.90;99.90
2212;DHT22;48849;48.758;9.158;2022-07-10T15:28:03;23.90;99.90
2212;DHT22;48849;48.758;9.158;2022-07-10T15:30:32;23.80;99.90
2212;DHT22;48849;48.758;9.158;2022-07-10T15:32:58;23.70;99.90
2212;DHT22;48849;48.758;9.158;2022-07-10T15:35:25;23.70;99.90
2212;DHT22;48849;48.758;9.158;2022-07-10T15:37:52;23.70;99.90
2212;DHT22;48849;48.758;9.158;2022-07-10T15:40:19;23.70;99.90
2212;DHT22;48849;48.758;9.158;2022-07-10T15:42:45;23.70;99.90
2212;DHT22;48849;48.758;9.158;2022-07-10T15:45:12;23.60;99.90
2212;DHT22;48849;48.758;9.158;2022-07-10T15:47:40;23.70;99.90
2212;DHT22;48849;48.758;9.158;2022-07-10T15:50:07;23.60;99.90
2212;DHT22;48849;48.758;9.158;2022-07-10T15:52:34;23.60;99.90
2212;DHT22;48849;48.758;9.158;2022-07-10T15:55:01;23.60;99.90
2212;DHT22;48849;48.758;9.158;2022-07-10T15:57:27;23.60;99.90